Terminal Aerodrome Forecast
Issued by NWS Sioux Falls, SD

Home | Current Version | Previous Version | Graphics & Text | Print | Product List | Glossary Off
Versions: 1 2 3 4 5 6 7 8 9 10 11 12 13 14 15 16 17 18 19 20 21

000
FTUS43 KFSD 261720
TAFSUX
TAF
KSUX 261720Z 2618/2718 06013KT P6SM BKN020
     FM262100 07014G20KT P6SM VCTS BKN020CB
     FM270000 08016G23KT P6SM SHRA OVC020
      TEMPO 2700/2704 5SM TSRA OVC015CB
     FM270600 08019G26KT 5SM SHRA BR OVC010
     FM271200 09015G25KT 3SM SHRA BR OVC006=

USA.gov is the U.S. government's official web portal to all federal, state and local government web resources and services.